createdAt,value
2019-01-02T00:01:48.928Z,72.46
2019-01-02T00:04:39.713Z,72.17
2019-01-02T00:07:10.433Z,72.06
2019-01-02T00:09:59.460Z,72.07
2019-01-02T00:12:29.784Z,71.82
2019-01-02T00:15:00.213Z,71.32
2019-01-02T00:17:30.579Z,71.18
2019-01-02T00:20:02.574Z,70.85
2019-01-02T00:22:32.843Z,70.01
2019-01-02T00:25:23.687Z,69.38
2019-01-02T00:27:55.752Z,68.75
2019-01-02T00:30:26.108Z,68.34
2019-01-02T00:33:09.002Z,68.38
2019-01-02T00:35:39.417Z,68.58
2019-01-02T00:38:09.752Z,68.59
2019-01-02T00:40:40.022Z,68.64
2019-01-02T00:43:10.547Z,68.63
2019-01-02T00:45:40.800Z,68.49
2019-01-02T00:48:11.075Z,68.34
2019-01-02T00:50:43.157Z,68.10
2019-01-02T00:53:32.552Z,68.22
2019-01-02T00:56:02.936Z,68.78
2019-01-02T01:01:52.081Z,70.22
2019-01-02T01:04:23.715Z,71.15
2019-01-02T01:06:53.955Z,71.51
2019-01-02T01:09:26.050Z,71.61
2019-01-02T01:15:06.723Z,71.56
2019-01-02T01:17:38.730Z,71.44
2019-01-02T01:20:10.345Z,71.30
2019-01-02T01:31:53.150Z,71.85
2019-01-02T01:34:34.942Z,72.06
2019-01-02T01:37:18.651Z,72.23
2019-01-02T01:42:45.450Z,72.42
2019-01-02T01:48:13.637Z,72.64
2019-01-02T01:56:35.797Z,72.73
2019-01-02T01:59:44.912Z,72.93
2019-01-02T02:02:27.972Z,72.86
2019-01-02T02:04:58.586Z,73.02
2019-01-02T02:07:49.123Z,73.40
2019-01-02T02:10:20.015Z,73.77
2019-01-02T02:13:10.634Z,73.82
2019-01-02T02:15:41.051Z,73.71
2019-01-02T02:18:11.224Z,73.40
2019-01-02T02:20:43.819Z,73.42
2019-01-02T02:23:14.085Z,73.25
2019-01-02T02:25:46.141Z,72.86
2019-01-02T02:28:37.751Z,72.73
2019-01-02T02:31:28.161Z,72.36
2019-01-02T02:36:57.416Z,72.46
2019-01-02T02:39:29.485Z,72.42
2019-01-02T02:42:01.532Z,72.25
2019-01-02T02:53:12.911Z,71.91
2019-01-02T02:55:45.411Z,71.83
2019-01-02T02:58:17.544Z,71.83
2019-01-02T03:00:49.684Z,71.89
2019-01-02T03:03:20.212Z,71.76
2019-01-02T03:05:50.456Z,71.89
2019-01-02T03:08:39.713Z,71.88
2019-01-02T03:11:10.078Z,71.95
2019-01-02T03:14:00.944Z,71.84
2019-01-02T03:16:33.000Z,71.91
2019-01-02T03:21:58.990Z,71.99
2019-01-02T03:24:31.058Z,71.97
2019-01-02T03:27:01.526Z,71.78
2019-01-02T03:29:31.835Z,71.90
2019-01-02T03:32:02.453Z,71.68
2019-01-02T03:34:53.215Z,71.79
2019-01-02T03:37:23.572Z,71.62
2019-01-02T03:39:53.814Z,71.65
2019-01-02T03:42:42.849Z,71.59
2019-01-02T03:45:15.752Z,71.53
2019-01-02T03:47:46.396Z,71.63
2019-01-02T03:50:18.682Z,71.74
2019-01-02T03:52:48.961Z,71.86
2019-01-02T03:55:19.654Z,71.88
2019-01-02T03:58:08.724Z,71.80
2019-01-02T04:00:39.010Z,71.95
2019-01-02T04:03:20.738Z,71.75
2019-01-02T04:05:51.138Z,72.01
2019-01-02T04:08:21.410Z,72.05
2019-01-02T04:10:51.740Z,72.01
2019-01-02T04:13:23.202Z,72.08
2019-01-02T04:16:12.899Z,71.78
2019-01-02T04:27:22.274Z,71.88
2019-01-02T04:29:52.518Z,71.56
2019-01-02T04:32:22.867Z,71.65
2019-01-02T04:34:53.161Z,71.70
2019-01-02T04:37:42.213Z,71.46
2019-01-02T04:40:13.816Z,71.46
2019-01-02T04:42:44.135Z,71.35
2019-01-02T04:45:14.434Z,71.32
2019-01-02T04:48:03.764Z,71.20
2019-01-02T04:50:34.098Z,71.21
2019-01-02T04:53:04.370Z,70.99
2019-01-02T04:55:34.684Z,71.06
2019-01-02T05:00:59.343Z,70.85
2019-01-02T05:06:15.816Z,71.01
2019-01-02T05:08:46.173Z,70.70
2019-01-02T05:11:16.430Z,71.16
2019-01-02T05:13:46.836Z,71.12
2019-01-02T05:16:17.161Z,71.13
2019-01-02T05:18:47.424Z,71.32
2019-01-02T05:21:17.782Z,71.22
2019-01-02T05:32:15.996Z,71.90
2019-01-02T05:37:36.023Z,71.89
2019-01-02T05:40:08.453Z,72.09
2019-01-02T05:42:38.733Z,72.61
2019-01-02T05:45:09.344Z,72.74
2019-01-02T05:47:58.594Z,72.93
2019-01-02T05:53:49.144Z,73.33
2019-01-02T05:56:19.518Z,74.15
2019-01-02T05:59:28.740Z,74.11
2019-01-02T06:05:01.363Z,74.21
2019-01-02T06:07:31.608Z,74.12
2019-01-02T06:10:20.836Z,73.89
2019-01-02T06:12:51.140Z,73.27
2019-01-02T06:16:00.406Z,73.48
2019-01-02T06:18:30.744Z,73.45
2019-01-02T06:21:01.028Z,73.12
2019-01-02T06:23:31.404Z,72.69
2019-01-02T06:26:01.649Z,72.24
2019-01-02T06:28:31.964Z,72.14
2019-01-02T06:31:02.337Z,72.26
2019-01-02T06:33:32.723Z,72.00
2019-01-02T06:38:59.454Z,72.12
2019-01-02T06:41:29.804Z,71.59
2019-01-02T06:44:18.953Z,71.41
2019-01-02T06:46:49.263Z,71.13
2019-01-02T06:49:19.585Z,70.91
2019-01-02T06:51:50.043Z,70.93
2019-01-02T06:54:20.808Z,70.63
2019-01-02T06:56:51.161Z,70.74
2019-01-02T06:59:22.015Z,70.55
2019-01-02T07:02:11.357Z,70.59
2019-01-02T07:04:51.912Z,70.11
2019-01-02T07:07:40.938Z,69.16
2019-01-02T07:10:11.415Z,68.72
2019-01-02T07:12:41.692Z,68.55
2019-01-02T07:15:50.845Z,68.64
2019-01-02T07:18:21.159Z,68.34
2019-01-02T07:20:51.846Z,67.72
2019-01-02T07:23:21.911Z,67.45
2019-01-02T07:25:51.932Z,67.58
2019-01-02T07:28:21.949Z,66.74
2019-01-02T07:36:42.114Z,65.69
2019-01-02T07:39:23.877Z,65.51
2019-01-02T07:42:05.486Z,65.24
2019-01-02T07:44:47.487Z,64.83
2019-01-02T07:47:55.450Z,65.21
2019-01-02T07:51:03.186Z,64.95
2019-01-02T07:54:10.962Z,63.97
2019-01-02T07:57:18.713Z,64.37
2019-01-02T08:00:00.164Z,63.78
2019-01-02T08:05:26.246Z,63.52
2019-01-02T08:11:06.316Z,63.45
2019-01-02T08:14:14.086Z,63.45
2019-01-02T08:17:22.076Z,62.93
2019-01-02T08:20:29.777Z,63.07
2019-01-02T08:23:37.616Z,63.55
2019-01-02T08:26:33.299Z,63.38
2019-01-02T08:29:18.013Z,63.56
2019-01-02T08:31:59.669Z,63.48
2019-01-02T08:34:53.668Z,63.22
2019-01-02T08:38:01.376Z,62.96
2019-01-02T08:40:42.452Z,62.45
2019-01-02T08:43:24.213Z,62.07
2019-01-02T08:46:32.133Z,62.36
2019-01-02T08:49:27.643Z,62.44
2019-01-02T08:52:09.390Z,61.88
2019-01-02T08:55:17.344Z,62.02
2019-01-02T08:58:25.622Z,62.30
2019-01-02T09:01:18.548Z,62.14
2019-01-02T09:04:11.162Z,61.93
2019-01-02T09:06:52.220Z,62.00
2019-01-02T09:09:33.845Z,61.83
2019-01-02T09:12:15.289Z,61.84
2019-01-02T09:15:23.378Z,62.09
2019-01-02T09:18:31.138Z,62.05
2019-01-02T09:21:38.941Z,61.89
2019-01-02T09:24:46.864Z,61.33
2019-01-02T09:28:00.123Z,62.08
2019-01-02T09:31:07.836Z,62.10
2019-01-02T09:34:15.643Z,61.94
2019-01-02T09:37:23.337Z,61.41
2019-01-02T09:40:05.281Z,61.31
2019-01-02T09:48:49.518Z,61.04
2019-01-02T09:51:57.441Z,60.53
2019-01-02T09:57:28.236Z,59.41
2019-01-02T10:00:36.982Z,58.89
2019-01-02T10:03:18.774Z,58.54
2019-01-02T10:05:59.808Z,57.93
2019-01-02T10:09:07.676Z,57.96
2019-01-02T10:18:35.768Z,56.79
2019-01-02T10:24:50.185Z,56.16
2019-01-02T10:27:57.981Z,55.87
2019-01-02T10:31:05.740Z,55.87
2019-01-02T10:34:01.612Z,55.17
2019-01-02T10:37:09.451Z,55.49
2019-01-02T10:40:17.130Z,54.74
2019-01-02T10:43:24.963Z,54.08
2019-01-02T10:46:32.848Z,54.92
2019-01-02T10:49:28.292Z,54.79
2019-01-02T10:52:10.475Z,54.31
2019-01-02T10:55:18.500Z,53.92
2019-01-02T10:58:26.198Z,53.99
2019-01-02T11:01:37.117Z,53.93
2019-01-02T11:04:30.646Z,54.32
2019-01-02T11:07:39.381Z,53.82
2019-01-02T11:10:47.070Z,54.18
2019-01-02T11:16:45.956Z,52.08
2019-01-02T11:19:42.959Z,51.13
2019-01-02T11:25:28.018Z,52.67
2019-01-02T11:28:35.820Z,52.15
2019-01-02T11:34:46.713Z,50.48
2019-01-02T11:40:39.349Z,50.51
2019-01-02T11:43:47.028Z,51.13
2019-01-02T11:49:11.958Z,51.28
2019-01-02T11:51:42.064Z,50.78
2019-01-02T11:54:12.278Z,51.29
2019-01-02T11:56:42.529Z,51.36
2019-01-02T11:59:12.801Z,50.79
2019-01-02T12:01:42.912Z,50.51
2019-01-02T12:04:12.907Z,51.13
2019-01-02T12:06:43.165Z,51.15
2019-01-02T12:09:25.039Z,50.84
2019-01-02T12:11:55.080Z,50.82
2019-01-02T12:14:43.952Z,51.20
2019-01-02T12:19:50.477Z,51.00
2019-01-02T12:22:21.049Z,51.76
2019-01-02T12:30:46.113Z,51.99
2019-01-02T12:33:16.177Z,51.86
2019-01-02T12:35:46.262Z,52.01
2019-01-02T12:38:17.592Z,52.12
2019-01-02T12:43:44.322Z,52.45
2019-01-02T12:46:14.627Z,52.45
2019-01-02T12:48:47.433Z,52.82
2019-01-02T12:51:17.823Z,52.37
2019-01-02T12:53:48.187Z,52.43
2019-01-02T12:56:18.278Z,52.44
2019-01-02T12:58:48.646Z,52.96
2019-01-02T13:01:40.708Z,53.21
2019-01-02T13:08:15.471Z,52.78
2019-01-02T13:10:56.910Z,53.87
2019-01-02T13:14:04.797Z,54.12
2019-01-02T13:17:12.483Z,53.74
2019-01-02T13:20:20.249Z,53.97
2019-01-02T13:23:27.946Z,53.94
2019-01-02T13:26:09.534Z,54.13
2019-01-02T13:29:17.385Z,54.23
2019-01-02T13:32:25.145Z,53.16
2019-01-02T13:35:32.788Z,53.09
2019-01-02T13:38:40.651Z,53.32
2019-01-02T13:45:05.662Z,53.40
2019-01-02T13:48:13.284Z,53.61
2019-01-02T13:51:00.268Z,53.68
2019-01-02T13:56:19.036Z,53.68
2019-01-02T13:58:49.219Z,53.92
2019-01-02T14:01:19.777Z,54.56
2019-01-02T14:03:54.175Z,54.42
2019-01-02T14:06:24.451Z,54.82
2019-01-02T14:08:54.377Z,55.04
2019-01-02T14:14:16.497Z,55.20
2019-01-02T14:16:46.590Z,55.64
2019-01-02T14:19:16.809Z,55.41
2019-01-02T14:21:46.924Z,55.17
2019-01-02T14:24:35.764Z,55.80
2019-01-02T14:27:17.362Z,55.46
2019-01-02T14:32:30.674Z,55.83
2019-01-02T14:35:00.754Z,56.42
2019-01-02T14:37:31.070Z,56.78
2019-01-02T14:40:20.560Z,56.22
2019-01-02T14:45:46.271Z,57.06
2019-01-02T14:51:11.300Z,57.34
2019-01-02T14:53:41.553Z,57.37
2019-01-02T14:56:11.897Z,58.31
2019-01-02T14:58:42.267Z,58.43
2019-01-02T15:04:01.619Z,58.67
2019-01-02T15:06:31.947Z,58.55
2019-01-02T15:09:01.908Z,59.07
2019-01-02T15:11:43.999Z,59.04
2019-01-02T15:14:25.517Z,59.13
2019-01-02T15:16:55.902Z,58.92
2019-01-02T15:19:26.201Z,59.68
2019-01-02T15:21:57.060Z,59.86
2019-01-02T15:27:02.935Z,59.79
2019-01-02T15:29:32.957Z,59.49
2019-01-02T15:32:02.992Z,60.09
2019-01-02T15:34:33.032Z,60.18
2019-01-02T15:37:03.292Z,60.03
2019-01-02T15:39:52.299Z,60.79
2019-01-02T15:42:22.640Z,60.67
2019-01-02T15:44:52.933Z,60.69
2019-01-02T15:47:22.962Z,60.57
2019-01-02T15:49:53.373Z,60.85
2019-01-02T15:52:23.426Z,60.74
2019-01-02T15:55:12.366Z,60.94
2019-01-02T15:58:01.291Z,60.54
2019-01-02T16:00:31.446Z,60.41
2019-01-02T16:03:20.473Z,60.01
2019-01-02T16:08:26.152Z,60.65
2019-01-02T16:14:28.401Z,61.37
2019-01-02T16:17:37.483Z,60.89
2019-01-02T16:25:48.178Z,61.62
2019-01-02T16:28:37.328Z,61.73
2019-01-02T16:31:07.657Z,62.07
2019-01-02T16:33:56.914Z,62.51
2019-01-02T16:36:27.272Z,62.26
2019-01-02T16:38:57.405Z,62.61
2019-01-02T16:41:27.522Z,62.51
2019-01-02T16:44:16.648Z,62.98
2019-01-02T16:50:14.599Z,63.55
2019-01-02T16:52:44.850Z,63.78
2019-01-02T16:55:54.165Z,63.85
2019-01-02T16:58:24.579Z,63.99
2019-01-02T17:00:54.923Z,64.50
2019-01-02T17:04:02.924Z,64.46
2019-01-02T17:12:37.706Z,65.08
2019-01-02T17:15:47.703Z,65.31
2019-01-02T17:18:18.014Z,65.42
2019-01-02T17:20:49.642Z,65.62
2019-01-02T17:23:39.810Z,65.71
2019-01-02T17:26:30.328Z,65.60
2019-01-02T17:29:11.265Z,65.30
2019-01-02T17:37:21.546Z,65.46
2019-01-02T17:39:51.704Z,65.82
2019-01-02T17:42:21.738Z,65.62
2019-01-02T17:45:31.136Z,65.58
2019-01-02T17:51:27.353Z,65.75
2019-01-02T17:57:21.953Z,65.94
2019-01-02T18:02:58.457Z,66.06
2019-01-02T18:08:51.403Z,65.94
2019-01-02T18:14:34.368Z,65.79
2019-01-02T18:17:05.912Z,65.76
2019-01-02T18:19:56.892Z,65.69
2019-01-02T18:22:50.958Z,65.82
2019-01-02T18:25:44.031Z,65.84
2019-01-02T18:34:26.711Z,65.44
2019-01-02T18:37:15.870Z,65.43
2019-01-02T18:40:05.448Z,65.40
2019-01-02T18:45:51.546Z,65.28
2019-01-02T18:48:21.940Z,65.87
2019-01-02T19:11:11.878Z,65.34
2019-01-02T19:13:42.381Z,65.31
2019-01-02T19:16:12.746Z,65.14
2019-01-02T19:31:36.054Z,65.91
2019-01-02T19:37:32.530Z,66.26
2019-01-02T19:49:08.013Z,66.12
2019-01-02T19:55:03.300Z,66.02
2019-01-02T20:00:44.402Z,64.94
2019-01-02T20:12:15.092Z,63.92
2019-01-02T20:17:29.555Z,63.72
2019-01-02T20:22:59.281Z,63.88
2019-01-02T20:33:39.897Z,64.22
2019-01-02T20:39:09.948Z,63.83
2019-01-02T20:41:40.140Z,63.83
2019-01-02T20:44:10.355Z,63.89
2019-01-02T20:46:40.506Z,63.72
2019-01-02T20:49:10.934Z,63.79
2019-01-02T20:51:41.189Z,63.47
2019-01-02T20:54:12.035Z,63.46
2019-01-02T20:57:02.431Z,63.27
2019-01-02T20:59:32.651Z,63.32
2019-01-02T21:04:53.625Z,63.05
2019-01-02T21:10:18.657Z,63.36
2019-01-02T21:12:48.691Z,63.38
2019-01-02T21:18:08.678Z,63.57
2019-01-02T21:23:51.668Z,64.02
2019-01-02T21:26:21.755Z,64.25
2019-01-02T21:31:40.935Z,64.79
2019-01-02T21:34:11.147Z,64.70
2019-01-02T21:39:30.693Z,64.94
2019-01-02T21:42:00.853Z,64.93
2019-01-02T21:44:30.771Z,64.94
2019-01-02T21:47:00.988Z,64.87
2019-01-02T21:49:51.376Z,64.79
2019-01-02T21:52:40.386Z,64.33
2019-01-02T21:55:31.273Z,64.56
2019-01-02T21:58:40.670Z,64.72
2019-01-02T22:01:29.736Z,65.13
2019-01-02T22:04:00.188Z,65.37
2019-01-02T22:09:44.636Z,65.30
2019-01-02T22:12:33.787Z,65.48
2019-01-02T22:17:40.547Z,65.12
2019-01-02T22:23:06.909Z,65.35
2019-01-02T22:25:55.885Z,65.27
2019-01-02T22:31:48.393Z,65.31
2019-01-02T22:34:18.750Z,65.20
2019-01-02T22:36:49.120Z,64.85
2019-01-02T22:39:19.618Z,64.93
2019-01-02T22:41:49.894Z,65.14
2019-01-02T22:44:38.902Z,64.97
2019-01-02T22:50:11.891Z,64.66
2019-01-02T22:52:42.184Z,64.49
2019-01-02T22:55:12.492Z,64.48
2019-01-02T22:57:42.827Z,64.57
2019-01-02T23:03:21.532Z,64.69
2019-01-02T23:06:10.550Z,65.13
2019-01-02T23:11:37.539Z,64.77
2019-01-02T23:14:26.579Z,64.57
2019-01-02T23:17:27.063Z,64.62
2019-01-02T23:20:16.143Z,64.79
2019-01-02T23:26:19.843Z,64.83
2019-01-02T23:29:13.472Z,65.19
2019-01-02T23:32:02.477Z,65.32
2019-01-02T23:35:10.850Z,65.51
2019-01-02T23:41:07.801Z,65.81
2019-01-02T23:43:57.089Z,66.13
2019-01-02T23:46:46.111Z,65.98
2019-01-02T23:49:27.279Z,66.12
2019-01-02T23:52:16.351Z,66.41
2019-01-02T23:55:25.281Z,66.71
2019-01-02T23:58:14.333Z,66.41
